createdAt,value
2022-11-14T00:01:00.625Z,75.35
2022-11-14T00:03:27.287Z,63.13
2022-11-14T00:05:53.925Z,87.35
2022-11-14T00:08:25.448Z,91.65
2022-11-14T00:10:52.607Z,147.52
2022-11-14T00:13:20.747Z,140.45
2022-11-14T00:15:54.320Z,110.72
2022-11-14T00:18:21.214Z,123.13
2022-11-14T00:20:52.399Z,170.25
2022-11-14T00:23:20.278Z,111.22
2022-11-14T00:25:47.248Z,80.68
2022-11-14T00:28:14.666Z,112.50
2022-11-14T00:30:41.377Z,112.22
2022-11-14T00:33:08.002Z,70.40
2022-11-14T00:35:34.638Z,82.82
2022-11-14T00:38:01.363Z,93.13
2022-11-14T00:40:28.000Z,89.22
2022-11-14T00:42:54.907Z,97.45
2022-11-14T00:45:21.986Z,102.15
2022-11-14T00:47:48.636Z,62.97
2022-11-14T00:50:16.716Z,65.13
2022-11-14T00:52:43.331Z,63.42
2022-11-14T00:55:09.961Z,107.55
2022-11-14T00:57:36.596Z,84.53
2022-11-14T01:00:04.712Z,87.63
2022-11-14T01:02:31.406Z,114.80
2022-11-14T01:04:58.043Z,63.15
2022-11-14T01:07:24.679Z,49.30
2022-11-14T01:09:51.338Z,74.47
2022-11-14T01:12:17.961Z,63.95
2022-11-14T01:14:44.618Z,107.32
2022-11-14T01:17:11.855Z,60.42
2022-11-14T01:19:38.798Z,77.60
2022-11-14T01:22:06.589Z,83.07
2022-11-14T01:24:34.203Z,57.95
2022-11-14T01:27:01.523Z,67.10
2022-11-14T01:29:28.387Z,98.40
2022-11-14T01:31:55.464Z,88.95
2022-11-14T01:34:22.931Z,76.18
2022-11-14T01:36:49.643Z,61.60
2022-11-14T01:39:16.328Z,63.08
2022-11-14T01:41:43.072Z,105.88
2022-11-14T01:44:16.584Z,76.60
2022-11-14T01:46:47.090Z,54.88
2022-11-14T01:49:19.810Z,60.83
2022-11-14T01:51:53.934Z,106.10
2022-11-14T01:54:27.017Z,90.43
2022-11-14T01:56:57.546Z,56.95
2022-11-14T01:59:37.730Z,61.70
2022-11-14T02:02:20.121Z,83.18
2022-11-14T02:04:50.915Z,66.07
2022-11-14T02:07:17.926Z,75.32
2022-11-14T02:09:46.386Z,64.95
2022-11-14T02:12:15.405Z,140.52
2022-11-14T02:14:45.394Z,109.03
2022-11-14T02:17:30.363Z,143.80
2022-11-14T02:20:05.294Z,55.95
2022-11-14T02:22:32.514Z,89.75
2022-11-14T02:24:59.180Z,66.25
2022-11-14T02:27:25.965Z,51.50
2022-11-14T02:29:52.591Z,96.82
2022-11-14T02:32:19.268Z,58.80
2022-11-14T02:34:45.987Z,86.43
2022-11-14T02:37:12.632Z,70.28
2022-11-14T02:39:39.426Z,75.60
2022-11-14T02:42:06.163Z,73.25
2022-11-14T02:44:32.841Z,70.93
2022-11-14T02:46:59.479Z,85.22
2022-11-14T02:49:26.099Z,70.07
2022-11-14T02:51:52.713Z,70.28
2022-11-14T02:54:19.332Z,60.13
2022-11-14T02:56:45.978Z,91.22
2022-11-14T02:59:12.606Z,92.13
2022-11-14T03:01:39.242Z,71.10
2022-11-14T03:04:06.075Z,106.78
2022-11-14T03:06:32.742Z,80.68
2022-11-14T03:08:59.365Z,77.53
2022-11-14T03:11:26.014Z,130.35
2022-11-14T03:13:52.671Z,88.65
2022-11-14T03:16:19.379Z,94.38
2022-11-14T03:18:46.040Z,84.25
2022-11-14T03:21:17.975Z,98.47
2022-11-14T03:23:44.653Z,65.35
2022-11-14T03:26:12.713Z,87.82
2022-11-14T03:28:40.538Z,82.35
2022-11-14T03:31:08.274Z,71.03
2022-11-14T03:33:35.507Z,77.45
2022-11-14T03:36:02.605Z,74.15
2022-11-14T03:38:29.756Z,67.15
2022-11-14T03:40:58.524Z,87.65
2022-11-14T03:43:26.578Z,60.75
2022-11-14T03:45:53.210Z,47.22
2022-11-14T03:48:19.855Z,104.20
2022-11-14T03:50:46.518Z,51.60
2022-11-14T03:53:13.241Z,90.55
2022-11-14T03:55:40.216Z,66.20
2022-11-14T03:58:06.940Z,78.63
2022-11-14T04:00:33.597Z,50.83
2022-11-14T04:03:00.235Z,50.85
2022-11-14T04:05:26.903Z,90.40
2022-11-14T04:07:53.557Z,53.88
2022-11-14T04:10:20.351Z,74.97
2022-11-14T04:12:51.531Z,51.92
2022-11-14T04:15:19.469Z,53.63
2022-11-14T04:17:46.591Z,85.07
2022-11-14T04:20:14.253Z,39.78
2022-11-14T04:22:41.476Z,40.55
2022-11-14T04:25:08.978Z,40.10
2022-11-14T04:27:35.936Z,70.65
2022-11-14T04:30:02.885Z,37.75
2022-11-14T04:32:29.544Z,43.15
2022-11-14T04:34:56.183Z,51.45
2022-11-14T04:37:22.844Z,43.58
2022-11-14T04:39:49.528Z,38.42
2022-11-14T04:42:16.222Z,32.08
2022-11-14T04:44:42.906Z,38.95
2022-11-14T04:47:09.704Z,38.67
2022-11-14T04:49:36.571Z,38.97
2022-11-14T04:52:03.242Z,38.13
2022-11-14T04:54:29.858Z,44.13
2022-11-14T04:56:56.501Z,36.28
2022-11-14T04:59:23.109Z,34.72
2022-11-14T05:01:49.887Z,32.80
2022-11-14T05:04:16.568Z,46.88
2022-11-14T05:06:43.276Z,37.95
2022-11-14T05:09:09.984Z,37.10
2022-11-14T05:11:36.634Z,48.90
2022-11-14T05:14:03.363Z,35.40
2022-11-14T05:16:30.013Z,53.90
2022-11-14T05:18:56.719Z,60.65
2022-11-14T05:21:23.402Z,40.25
2022-11-14T05:23:50.071Z,45.17
2022-11-14T05:26:17.637Z,48.75
2022-11-14T05:28:44.425Z,48.03
2022-11-14T05:31:19.130Z,75.95
2022-11-14T05:33:47.478Z,43.30
2022-11-14T05:36:16.797Z,64.70
2022-11-14T05:38:43.957Z,41.35
2022-11-14T05:41:15.893Z,52.95
2022-11-14T05:43:43.296Z,45.75
2022-11-14T05:46:11.657Z,45.63
2022-11-14T05:48:38.697Z,66.25
2022-11-14T05:51:06.390Z,78.47
2022-11-14T05:53:34.726Z,47.65
2022-11-14T05:56:06.668Z,71.75
2022-11-14T05:58:34.567Z,45.65
2022-11-14T06:01:04.149Z,42.90
2022-11-14T06:03:33.034Z,44.58
2022-11-14T06:06:04.583Z,40.22
2022-11-14T06:08:32.145Z,38.53
2022-11-14T06:11:03.842Z,37.83
2022-11-14T06:13:31.179Z,36.60
2022-11-14T06:16:08.211Z,34.33
2022-11-14T06:18:36.302Z,36.35
2022-11-14T06:21:08.299Z,34.45
2022-11-14T06:23:34.933Z,32.53
2022-11-14T06:26:03.367Z,31.20
2022-11-14T06:28:30.808Z,36.80
2022-11-14T06:31:01.620Z,32.05
2022-11-14T06:33:29.472Z,32.72
2022-11-14T06:36:00.801Z,31.95
2022-11-14T06:38:28.664Z,32.30
2022-11-14T06:41:08.852Z,24.83
2022-11-14T06:43:36.984Z,28.17
2022-11-14T06:46:04.199Z,30.90
2022-11-14T06:48:31.853Z,28.70
2022-11-14T06:50:59.422Z,33.70
2022-11-14T06:53:28.188Z,33.30
2022-11-14T06:55:55.542Z,33.22
2022-11-14T06:58:22.193Z,27.02
2022-11-14T07:00:48.843Z,27.33
2022-11-14T07:03:15.506Z,22.45
2022-11-14T07:05:42.190Z,23.77
2022-11-14T07:08:09.172Z,26.40
2022-11-14T07:10:36.111Z,26.35
2022-11-14T07:13:02.733Z,28.42
2022-11-14T07:15:29.436Z,27.45
2022-11-14T07:17:56.092Z,39.05
2022-11-14T07:20:22.696Z,40.30
2022-11-14T07:22:49.315Z,38.38
2022-11-14T07:25:16.112Z,41.10
2022-11-14T07:27:43.102Z,40.13
2022-11-14T07:30:10.177Z,36.72
2022-11-14T07:32:36.834Z,35.80
2022-11-14T07:35:03.512Z,31.70
2022-11-14T07:37:30.259Z,30.15
2022-11-14T07:39:56.901Z,31.58
2022-11-14T07:42:23.507Z,27.95
2022-11-14T07:44:50.138Z,25.55
2022-11-14T07:47:16.832Z,30.38
2022-11-14T07:49:43.445Z,28.88
2022-11-14T07:52:10.159Z,25.90
2022-11-14T07:54:36.823Z,26.77
2022-11-14T07:57:03.568Z,26.50
2022-11-14T07:59:30.228Z,29.35
2022-11-14T08:01:57.062Z,25.50
2022-11-14T08:04:26.157Z,25.88
2022-11-14T08:06:52.924Z,22.23
2022-11-14T08:09:19.632Z,22.52
2022-11-14T08:11:49.147Z,25.88
2022-11-14T08:14:16.612Z,24.83
2022-11-14T08:16:43.267Z,27.00
2022-11-14T08:19:09.891Z,25.98
2022-11-14T08:21:36.597Z,26.88
2022-11-14T08:24:03.371Z,25.45
2022-11-14T08:26:34.055Z,27.23
2022-11-14T08:29:01.276Z,27.83
2022-11-14T08:31:28.755Z,25.92
2022-11-14T08:33:56.784Z,26.42
2022-11-14T08:36:23.457Z,27.00
2022-11-14T08:38:51.633Z,27.88
2022-11-14T08:41:18.628Z,26.63
2022-11-14T08:43:45.327Z,28.38
2022-11-14T08:46:11.981Z,25.70
2022-11-14T08:48:38.605Z,24.67
2022-11-14T08:51:06.724Z,25.45
2022-11-14T08:53:34.237Z,26.20
2022-11-14T08:56:00.929Z,29.08
2022-11-14T08:58:31.817Z,28.17
2022-11-14T09:01:03.718Z,28.35
2022-11-14T09:03:30.609Z,29.80
2022-11-14T09:05:57.633Z,30.92
2022-11-14T09:08:24.829Z,35.50
2022-11-14T09:10:51.580Z,35.38
2022-11-14T09:13:18.245Z,37.03
2022-11-14T09:15:45.002Z,32.15
2022-11-14T09:18:12.319Z,33.90
2022-11-14T09:20:40.531Z,36.55
2022-11-14T09:23:07.712Z,34.55
2022-11-14T09:25:35.911Z,36.90
2022-11-14T09:28:10.418Z,33.55
2022-11-14T09:30:37.476Z,33.63
2022-11-14T09:33:11.161Z,34.53
2022-11-14T09:35:38.584Z,24.02
2022-11-14T09:38:07.387Z,25.65
2022-11-14T09:41:14.272Z,23.85
2022-11-14T09:43:55.888Z,24.35
2022-11-14T09:46:23.136Z,21.75
2022-11-14T09:48:50.399Z,21.85
2022-11-14T09:51:21.382Z,28.42
2022-11-14T09:54:18.601Z,23.45
2022-11-14T09:56:45.281Z,21.23
2022-11-14T09:59:12.604Z,22.77
2022-11-14T10:01:54.431Z,22.23
2022-11-14T10:04:50.375Z,22.58
2022-11-14T10:07:38.864Z,22.40
2022-11-14T10:10:20.711Z,22.25
2022-11-14T10:13:25.664Z,23.60
2022-11-14T10:16:11.356Z,20.50
2022-11-14T10:18:49.464Z,23.50
2022-11-14T10:21:24.741Z,22.02
2022-11-14T10:24:09.045Z,19.85
2022-11-14T10:26:38.749Z,20.52
2022-11-14T10:29:14.604Z,22.40
2022-11-14T10:31:41.260Z,21.63
2022-11-14T10:34:17.656Z,26.25
2022-11-14T10:37:01.916Z,24.15
2022-11-14T10:39:40.537Z,25.77
2022-11-14T10:42:22.755Z,25.20
2022-11-14T10:45:13.297Z,24.83
2022-11-14T10:47:49.312Z,26.48
2022-11-14T10:50:21.908Z,24.63
2022-11-14T10:52:52.859Z,23.50
2022-11-14T10:55:24.864Z,24.25
2022-11-14T10:58:10.800Z,23.00
2022-11-14T11:00:37.686Z,19.90
2022-11-14T11:03:04.380Z,23.38
2022-11-14T11:05:31.227Z,22.13
2022-11-14T11:11:30.534Z,23.73
2022-11-14T11:13:59.849Z,22.67
2022-11-14T11:16:28.484Z,24.05
2022-11-14T11:19:24.634Z,22.00
2022-11-14T11:21:52.998Z,20.77
2022-11-14T11:24:32.841Z,22.52
2022-11-14T11:27:25.368Z,21.77
2022-11-14T11:30:08.220Z,23.63
2022-11-14T11:32:35.405Z,22.83
2022-11-14T11:35:03.983Z,22.65
2022-11-14T11:37:38.282Z,23.55
2022-11-14T11:40:06.735Z,23.73
2022-11-14T11:45:46.567Z,24.42
2022-11-14T11:48:21.034Z,26.38
2022-11-14T11:50:48.410Z,27.00
2022-11-14T11:53:36.835Z,28.88
2022-11-14T11:56:12.015Z,29.77
2022-11-14T11:58:49.075Z,27.13
2022-11-14T12:01:16.526Z,24.48
2022-11-14T12:03:48.084Z,23.65
2022-11-14T12:06:25.391Z,22.67
2022-11-14T12:09:17.882Z,21.10
2022-11-14T12:11:50.051Z,20.38
2022-11-14T12:14:51.454Z,22.23
2022-11-14T12:17:39.165Z,22.13
2022-11-14T12:22:38.039Z,22.80
2022-11-14T12:25:36.100Z,36.05
2022-11-14T12:28:28.957Z,25.92
2022-11-14T12:30:59.151Z,25.85
2022-11-14T12:33:33.403Z,20.58
2022-11-14T12:36:02.303Z,22.77
2022-11-14T12:38:34.608Z,19.45
2022-11-14T12:41:02.338Z,20.73
2022-11-14T12:43:37.147Z,21.65
2022-11-14T12:46:11.274Z,20.25
2022-11-14T12:48:44.470Z,20.23
2022-11-14T12:51:34.433Z,20.65
2022-11-14T12:54:02.614Z,21.33
2022-11-14T12:56:29.214Z,28.60
2022-11-14T12:59:15.145Z,21.20
2022-11-14T13:01:53.960Z,23.00
2022-11-14T13:04:23.614Z,20.65
2022-11-14T13:07:33.834Z,19.50
2022-11-14T13:10:17.225Z,19.27
2022-11-14T13:13:34.479Z,17.88
2022-11-14T13:16:41.533Z,19.15
2022-11-14T13:19:34.078Z,18.10
2022-11-14T13:22:12.653Z,19.48
2022-11-14T13:25:11.488Z,22.65
2022-11-14T13:28:07.366Z,23.77
2022-11-14T13:31:05.674Z,19.88
2022-11-14T13:33:52.200Z,20.25
2022-11-14T13:36:36.806Z,21.42
2022-11-14T13:39:34.563Z,19.77
2022-11-14T13:42:39.063Z,20.80
2022-11-14T13:45:20.535Z,18.13
2022-11-14T13:48:12.287Z,18.25
2022-11-14T13:50:40.642Z,18.50
2022-11-14T13:53:28.607Z,17.10
2022-11-14T13:56:12.479Z,17.83
2022-11-14T13:58:52.789Z,16.52
2022-11-14T14:01:34.285Z,17.50
2022-11-14T14:06:55.710Z,17.40
2022-11-14T14:10:05.600Z,17.08
2022-11-14T14:12:44.067Z,17.38
2022-11-14T14:15:25.411Z,16.27
2022-11-14T14:18:13.830Z,16.50
2022-11-14T14:20:51.473Z,19.77
2022-11-14T14:23:37.526Z,18.25
2022-11-14T14:26:23.160Z,16.30
2022-11-14T14:29:11.832Z,16.17
2022-11-14T14:31:39.698Z,16.25
2022-11-14T14:34:24.893Z,15.43
2022-11-14T14:36:56.531Z,17.20
2022-11-14T14:39:27.902Z,17.67
2022-11-14T14:41:56.378Z,17.58
2022-11-14T14:44:29.867Z,17.88
2022-11-14T14:46:56.540Z,17.38
2022-11-14T14:49:27.100Z,18.05
2022-11-14T14:51:58.306Z,18.63
2022-11-14T14:54:29.412Z,18.58
2022-11-14T14:57:00.580Z,20.17
2022-11-14T14:59:29.710Z,19.38
2022-11-14T15:01:57.639Z,21.40
2022-11-14T15:04:26.895Z,17.92
2022-11-14T15:09:29.641Z,17.85
2022-11-14T15:11:58.691Z,27.65
2022-11-14T15:14:31.755Z,16.77
2022-11-14T15:16:59.473Z,16.02
2022-11-14T15:19:31.815Z,23.30
2022-11-14T15:22:25.804Z,17.70
2022-11-14T15:25:10.906Z,28.13
2022-11-14T15:28:16.987Z,28.33
2022-11-14T15:30:59.676Z,40.05
2022-11-14T15:33:31.720Z,37.10
2022-11-14T15:36:24.688Z,27.95
2022-11-14T15:38:59.847Z,36.05
2022-11-14T15:41:29.913Z,25.23
2022-11-14T15:44:02.173Z,26.90
2022-11-14T15:46:37.915Z,22.20
2022-11-14T15:49:17.562Z,30.98
2022-11-14T15:51:47.642Z,21.73
2022-11-14T15:54:26.652Z,18.83
2022-11-14T15:56:55.442Z,17.63
2022-11-14T15:59:22.938Z,17.85
2022-11-14T16:01:52.314Z,18.92
2022-11-14T16:04:23.568Z,20.48
2022-11-14T16:06:50.329Z,20.08
2022-11-14T16:09:19.251Z,20.83
2022-11-14T16:11:48.749Z,19.10
2022-11-14T16:14:15.940Z,18.40
2022-11-14T16:16:42.682Z,18.25
2022-11-14T16:19:12.727Z,21.13
2022-11-14T16:21:39.431Z,20.17
2022-11-14T16:24:06.930Z,21.20
2022-11-14T16:26:33.585Z,19.42
2022-11-14T16:29:00.269Z,17.65
2022-11-14T16:31:26.977Z,17.08
2022-11-14T16:33:53.664Z,17.30
2022-11-14T16:36:21.943Z,17.20
2022-11-14T16:38:52.217Z,17.55
2022-11-14T16:41:19.743Z,16.92
2022-11-14T16:43:46.496Z,22.00
2022-11-14T16:46:13.192Z,17.63
2022-11-14T16:48:39.908Z,20.58
2022-11-14T16:51:20.197Z,22.23
2022-11-14T16:53:56.831Z,18.38
2022-11-14T16:56:23.835Z,17.17
2022-11-14T16:58:54.769Z,17.85
2022-11-14T17:01:21.783Z,17.90
2022-11-14T17:03:48.512Z,18.15
2022-11-14T17:06:15.183Z,17.15
2022-11-14T17:08:41.800Z,18.17
2022-11-14T17:11:09.957Z,16.00
2022-11-14T17:13:37.371Z,13.68
2022-11-14T17:16:04.986Z,14.25
2022-11-14T17:18:35.676Z,14.07
2022-11-14T17:21:06.335Z,14.27
2022-11-14T17:23:32.989Z,13.48
2022-11-14T17:26:07.612Z,13.70
2022-11-14T17:28:34.931Z,14.00
2022-11-14T17:31:07.693Z,12.98
2022-11-14T17:33:34.762Z,13.13
2022-11-14T17:36:09.323Z,14.88
2022-11-14T17:38:37.267Z,16.90
2022-11-14T17:41:07.573Z,14.43
2022-11-14T17:43:39.194Z,16.05
2022-11-14T17:46:12.571Z,16.25
2022-11-14T17:48:42.937Z,15.80
2022-11-14T17:51:15.125Z,13.82
2022-11-14T17:53:42.416Z,12.48
2022-11-14T17:56:20.886Z,11.18
2022-11-14T17:58:49.702Z,11.32
2022-11-14T18:01:18.221Z,12.05
2022-11-14T18:03:45.101Z,12.13
2022-11-14T18:06:17.134Z,17.90
2022-11-14T18:08:43.807Z,21.35
2022-11-14T18:11:12.477Z,15.73
2022-11-14T18:13:40.134Z,13.05
2022-11-14T18:16:10.568Z,13.75
2022-11-14T18:18:37.609Z,13.57
2022-11-14T18:21:13.070Z,14.68
2022-11-14T18:26:14.561Z,12.48
2022-11-14T18:28:41.478Z,11.88
2022-11-14T18:31:10.872Z,14.18
2022-11-14T18:33:38.766Z,12.25
2022-11-14T18:36:09.070Z,13.13
2022-11-14T18:38:36.759Z,15.40
2022-11-14T18:41:08.188Z,29.13
2022-11-14T18:43:35.055Z,15.82
2022-11-14T18:46:15.183Z,13.68
2022-11-14T18:48:45.098Z,14.43
2022-11-14T18:51:14.541Z,22.52
2022-11-14T18:53:41.181Z,16.63
2022-11-14T18:56:10.470Z,15.77
2022-11-14T19:01:16.425Z,13.60
2022-11-14T19:03:43.138Z,13.32
2022-11-14T19:06:11.853Z,16.67
2022-11-14T19:08:39.665Z,14.48
2022-11-14T19:11:09.119Z,14.02
2022-11-14T19:13:35.803Z,13.38
2022-11-14T19:16:06.345Z,12.90
2022-11-14T19:18:33.147Z,12.68
2022-11-14T19:21:01.874Z,15.35
2022-11-14T19:23:29.373Z,16.02
2022-11-14T19:26:00.869Z,15.48
2022-11-14T19:28:30.522Z,28.20
2022-11-14T19:31:04.544Z,12.88
2022-11-14T19:33:32.005Z,13.45
2022-11-14T19:36:05.340Z,13.38
2022-11-14T19:38:32.450Z,15.20
2022-11-14T19:41:04.477Z,14.65
2022-11-14T19:43:31.493Z,17.40
2022-11-14T19:46:03.442Z,15.15
2022-11-14T19:48:34.188Z,11.60
2022-11-14T19:51:02.011Z,14.55
2022-11-14T19:53:29.440Z,13.40
2022-11-14T19:56:04.513Z,11.27
2022-11-14T19:58:31.245Z,10.80
2022-11-14T20:01:06.558Z,10.55
2022-11-14T20:06:00.191Z,11.32
2022-11-14T20:08:26.903Z,11.68
2022-11-14T20:10:58.291Z,12.23
2022-11-14T20:13:25.213Z,14.30
2022-11-14T20:15:52.112Z,13.50
2022-11-14T20:18:18.814Z,13.25
2022-11-14T20:20:45.484Z,13.30
2022-11-14T20:23:12.397Z,13.73
2022-11-14T20:25:39.227Z,12.32
2022-11-14T20:28:08.071Z,12.18
2022-11-14T20:30:41.317Z,11.98
2022-11-14T20:33:08.739Z,11.82
2022-11-14T20:35:37.446Z,11.77
2022-11-14T20:38:07.637Z,11.85
2022-11-14T20:40:34.405Z,12.35
2022-11-14T20:43:01.261Z,12.05
2022-11-14T20:45:28.117Z,11.45
2022-11-14T20:47:55.269Z,13.18
2022-11-14T20:50:22.154Z,12.77
2022-11-14T20:52:49.169Z,11.68
2022-11-14T20:55:15.952Z,14.10
2022-11-14T20:57:42.847Z,14.63
2022-11-14T21:00:10.027Z,14.10
2022-11-14T21:02:36.696Z,15.10
2022-11-14T21:05:03.526Z,14.77
2022-11-14T21:07:30.198Z,16.88
2022-11-14T21:10:15.455Z,17.08
2022-11-14T21:12:45.700Z,16.98
2022-11-14T21:15:16.102Z,14.25
2022-11-14T21:17:42.727Z,12.05
2022-11-14T21:20:09.842Z,11.25
2022-11-14T21:22:36.482Z,11.00
2022-11-14T21:25:03.966Z,11.07
2022-11-14T21:27:30.725Z,11.35
2022-11-14T21:29:57.391Z,10.25
2022-11-14T21:32:23.994Z,9.57
2022-11-14T21:34:50.621Z,9.90
2022-11-14T21:37:17.230Z,9.63
2022-11-14T21:39:43.895Z,9.63
2022-11-14T21:42:15.562Z,10.68
2022-11-14T21:44:44.767Z,10.82
2022-11-14T21:47:11.383Z,10.43
2022-11-14T21:49:38.063Z,10.55
2022-11-14T21:52:04.859Z,10.75
2022-11-14T21:54:31.476Z,10.38
2022-11-14T21:56:58.259Z,11.00
2022-11-14T21:59:27.595Z,9.88
2022-11-14T22:02:13.364Z,10.05
2022-11-14T22:04:40.190Z,10.40
2022-11-14T22:07:08.452Z,11.55
2022-11-14T22:09:36.366Z,11.48
2022-11-14T22:12:05.722Z,11.73
2022-11-14T22:14:32.373Z,11.02
2022-11-14T22:16:59.167Z,10.68
2022-11-14T22:19:25.886Z,11.15
2022-11-14T22:21:52.983Z,10.90
2022-11-14T22:24:19.778Z,10.93
2022-11-14T22:26:46.411Z,10.85
2022-11-14T22:29:13.058Z,10.20
2022-11-14T22:31:39.666Z,11.75
2022-11-14T22:34:06.475Z,10.85
2022-11-14T22:36:33.529Z,11.40
2022-11-14T22:39:00.299Z,10.43
2022-11-14T22:41:33.249Z,9.63
2022-11-14T22:44:01.028Z,11.80
2022-11-14T22:46:27.798Z,10.93
2022-11-14T22:48:55.097Z,12.45
2022-11-14T22:51:26.504Z,11.77
2022-11-14T22:53:55.316Z,11.60
2022-11-14T22:56:24.815Z,11.77
2022-11-14T22:58:51.794Z,12.15
2022-11-14T23:01:20.931Z,10.93
2022-11-14T23:03:48.478Z,11.82
2022-11-14T23:06:17.343Z,12.40
2022-11-14T23:08:44.662Z,11.88
2022-11-14T23:11:14.412Z,11.77
2022-11-14T23:13:46.413Z,11.38
2022-11-14T23:16:15.265Z,12.00
2022-11-14T23:18:42.212Z,10.02
2022-11-14T23:21:14.553Z,11.38
2022-11-14T23:23:41.776Z,9.80
2022-11-14T23:26:13.927Z,10.25
2022-11-14T23:28:40.688Z,9.30
2022-11-14T23:31:08.585Z,8.52
2022-11-14T23:33:35.514Z,9.25
2022-11-14T23:36:02.450Z,8.32
2022-11-14T23:38:31.955Z,8.57
2022-11-14T23:41:00.634Z,8.43
2022-11-14T23:43:28.507Z,8.75
2022-11-14T23:45:55.392Z,7.72
2022-11-14T23:48:22.906Z,8.25
2022-11-14T23:50:50.839Z,8.40
2022-11-14T23:53:17.939Z,8.15
2022-11-14T23:55:54.587Z,8.88
2022-11-14T23:58:22.352Z,7.95
